createdAt,value
2018-03-11T05:53:03.022Z,34
2018-03-11T05:53:52.672Z,33.5
2018-03-11T05:54:41.697Z,33.3
2018-03-11T05:55:32.006Z,33.1
2018-03-11T05:56:21.659Z,32.9
2018-03-11T05:57:10.874Z,32.8
2018-03-11T05:58:02.024Z,32.7
2018-03-11T05:58:52.077Z,32.6
2018-03-11T05:59:41.950Z,32.4
2018-03-11T06:00:32.419Z,32.3
2018-03-11T06:01:22.451Z,32.2
2018-03-11T06:02:12.623Z,31.8
2018-03-11T06:03:01.847Z,31.3
2018-03-11T06:03:52.407Z,30.9
2018-03-11T06:04:42.487Z,30.6
2018-03-11T06:05:32.816Z,30.4
2018-03-11T06:06:22.801Z,29.8
2018-03-11T06:07:13.249Z,30.1
2018-03-11T06:08:03.632Z,30.8
2018-03-11T06:08:52.918Z,31.4
2018-03-11T06:09:42.733Z,31.9
2018-03-11T06:10:33.648Z,32.4
2018-03-11T06:11:22.807Z,32.9
2018-03-11T06:12:13.153Z,33.3
2018-03-11T06:13:03.206Z,33.8
2018-03-11T06:13:53.269Z,34.3
2018-03-11T06:14:44.019Z,34.4
2018-03-11T06:15:33.164Z,33.8
2018-03-11T06:16:23.510Z,33.4
2018-03-11T06:17:13.869Z,33.2
2018-03-11T06:18:03.848Z,33
2018-03-11T06:18:53.901Z,32.9
2018-03-11T06:19:43.245Z,32.8
2018-03-11T06:20:32.863Z,32.6
2018-03-11T06:21:23.023Z,32.6
2018-03-11T06:22:12.595Z,32.4
2018-03-11T06:23:03.318Z,32.3
2018-03-11T06:23:53.287Z,32.2
2018-03-11T06:24:42.266Z,32
2018-03-11T06:25:33.403Z,31.4
2018-03-11T06:26:23.291Z,31
2018-03-11T06:27:13.890Z,30.7
2018-03-11T06:28:03.163Z,30.4
2018-03-11T06:28:53.549Z,30.1
2018-03-11T06:29:44.649Z,29.9
2018-03-11T06:30:35.530Z,30.6
2018-03-11T06:31:24.833Z,31.2
2018-03-11T06:32:13.579Z,31.8
2018-03-11T06:33:03.834Z,32.3
2018-03-11T06:33:56.242Z,32.9
2018-03-11T06:34:46.344Z,33.4
2018-03-11T06:35:34.955Z,34
2018-03-11T06:36:26.159Z,34.6
2018-03-11T06:37:16.229Z,34.3
2018-03-11T06:38:06.333Z,33.8
2018-03-11T06:38:54.722Z,33.5
2018-03-11T06:39:46.277Z,33.3
2018-03-11T06:40:35.934Z,33.1
2018-03-11T06:41:25.247Z,33
2018-03-11T06:42:15.082Z,32.9
2018-03-11T06:43:06.399Z,32.8
2018-03-11T06:43:55.857Z,32.6
2018-03-11T06:44:47.034Z,32.4
2018-03-11T06:45:36.544Z,32.3
2018-03-11T06:46:26.849Z,32.1
2018-03-11T06:47:16.665Z,31.9
2018-03-11T06:48:07.015Z,31.8
2018-03-11T06:48:56.789Z,31.6
2018-03-11T06:49:47.116Z,31.5
2018-03-11T06:50:36.669Z,31.4
2018-03-11T06:51:25.938Z,31.3
2018-03-11T06:52:16.062Z,31.2
2018-03-11T06:53:06.358Z,31.1
2018-03-11T06:53:55.044Z,30.9
2018-03-11T06:54:46.690Z,30.8
2018-03-11T06:55:37.028Z,30.7
2018-03-11T06:56:26.898Z,30.5
2018-03-11T06:57:16.562Z,30.1
2018-03-11T06:58:05.733Z,30.6
2018-03-11T06:58:57.562Z,31.1
2018-03-11T06:59:47.010Z,31.6
2018-03-11T07:00:36.848Z,32.2
2018-03-11T07:01:27.158Z,32.7
2018-03-11T07:02:16.523Z,33.3
2018-03-11T07:03:07.343Z,33.8
2018-03-11T07:03:57.037Z,34.4
2018-03-11T07:04:46.627Z,34.9
2018-03-11T07:05:36.370Z,34.3
2018-03-11T07:06:26.308Z,33.9
2018-03-11T07:07:17.096Z,33.6
2018-03-11T07:08:06.947Z,33.4
2018-03-11T07:08:57.933Z,33.3
2018-03-11T07:09:48.590Z,33.2
2018-03-11T07:10:38.052Z,33
2018-03-11T07:11:28.473Z,32.8
2018-03-11T07:12:18.715Z,32.7
2018-03-11T07:13:09.094Z,32.6
2018-03-11T07:13:58.299Z,32.4
2018-03-11T07:14:47.296Z,32.3
2018-03-11T07:15:37.574Z,32.2
2018-03-11T07:16:27.232Z,32
2018-03-11T07:17:16.899Z,31.9
2018-03-11T07:18:07.166Z,31.8
2018-03-11T07:18:57.580Z,31.6
2018-03-11T07:19:47.685Z,31.5
2018-03-11T07:20:36.569Z,31.4
2018-03-11T07:21:27.792Z,31.3
2018-03-11T07:22:17.504Z,31.1
2018-03-11T07:23:07.554Z,31
2018-03-11T07:23:57.940Z,30.8
2018-03-11T07:24:47.359Z,30.4
2018-03-11T07:25:38.944Z,30.9
2018-03-11T07:26:28.701Z,31.5
2018-03-11T07:27:17.249Z,32.1
2018-03-11T07:28:08.192Z,32.6
2018-03-11T07:28:58.717Z,33.2
2018-03-11T07:29:47.926Z,33.8
2018-03-11T07:30:38.319Z,34.4
2018-03-11T07:31:28.011Z,34.8
2018-03-11T07:32:17.443Z,34.2
2018-03-11T07:33:08.434Z,33.8
2018-03-11T07:33:59.288Z,33.6
2018-03-11T07:34:48.806Z,33.4
2018-03-11T07:35:39.130Z,33.3
2018-03-11T07:36:28.902Z,33.1
2018-03-11T07:37:18.559Z,33
2018-03-11T07:38:08.619Z,32.8
2018-03-11T07:38:58.276Z,32.7
2018-03-11T07:39:49.093Z,32.6
2018-03-11T07:40:38.993Z,32.4
2018-03-11T07:41:30.106Z,32.3
2018-03-11T07:42:19.493Z,32.1
2018-03-11T07:43:08.560Z,32
2018-03-11T07:43:59.103Z,31.9
2018-03-11T07:44:50.067Z,31.8
2018-03-11T07:45:38.545Z,31.6
2018-03-11T07:46:29.484Z,31.5
2018-03-11T07:47:19.398Z,31.3
2018-03-11T07:48:09.171Z,31.3
2018-03-11T07:48:59.532Z,31.1
2018-03-11T07:49:48.856Z,30.9
2018-03-11T07:50:39.326Z,30.4
2018-03-11T07:51:29.249Z,30.8
2018-03-11T07:52:19.462Z,31.3
2018-03-11T07:53:09.402Z,31.9
2018-03-11T07:54:00.013Z,32.4
2018-03-11T07:54:49.805Z,33.1
2018-03-11T07:55:39.789Z,33.6
2018-03-11T07:56:29.137Z,34.3
2018-03-11T07:57:20.276Z,34.9
2018-03-11T07:58:10.380Z,34.4
2018-03-11T07:58:58.842Z,33.9
2018-03-11T07:59:50.695Z,33.7
2018-03-11T08:00:40.130Z,33.5
2018-03-11T08:01:30.246Z,33.3
2018-03-11T08:02:19.667Z,33.2
2018-03-11T08:03:11.224Z,33.1
2018-03-11T08:04:01.165Z,32.9
2018-03-11T08:04:51.205Z,32.8
2018-03-11T08:05:41.217Z,32.6
2018-03-11T08:06:29.971Z,32.4
2018-03-11T08:07:21.520Z,32.3
2018-03-11T08:08:10.987Z,32.1
2018-03-11T08:09:00.327Z,31.9
2018-03-11T08:09:50.891Z,31.8
2018-03-11T08:10:40.469Z,31.6
2018-03-11T08:11:31.208Z,31.4
2018-03-11T08:12:21.575Z,31.3
2018-03-11T08:13:11.225Z,31.1
2018-03-11T08:14:01.196Z,30.9
2018-03-11T08:14:51.571Z,30.8
2018-03-11T08:15:41.161Z,30.7
2018-03-11T08:16:31.646Z,30.4
2018-03-11T08:17:22.148Z,30.1
2018-03-11T08:18:12.195Z,30.8
2018-03-11T08:19:02.044Z,31.4
2018-03-11T08:19:51.416Z,32.1
2018-03-11T08:20:41.600Z,32.7
2018-03-11T08:21:32.129Z,33.4
2018-03-11T08:22:22.515Z,34.1
2018-03-11T08:23:11.454Z,34.8
2018-03-11T08:24:01.638Z,34.3
2018-03-11T08:24:52.136Z,33.8
2018-03-11T08:25:41.065Z,33.5
2018-03-11T08:26:31.908Z,33.3
2018-03-11T08:27:22.965Z,33.1
2018-03-11T08:28:12.523Z,33
2018-03-11T08:29:02.653Z,32.8
2018-03-11T08:29:52.849Z,32.7
2018-03-11T08:30:42.695Z,32.5
2018-03-11T08:31:32.195Z,32.3
2018-03-11T08:32:23.968Z,32.1
2018-03-11T08:33:13.063Z,32
2018-03-11T08:34:02.892Z,31.9
2018-03-11T08:34:53.463Z,31.7
2018-03-11T08:35:43.165Z,31.6
2018-03-11T08:36:32.722Z,31.4
2018-03-11T08:37:23.567Z,31.2
2018-03-11T08:38:12.762Z,31.1
2018-03-11T08:39:03.821Z,30.9
2018-03-11T08:39:52.983Z,30.8
2018-03-11T08:40:42.181Z,30.6
2018-03-11T08:41:32.202Z,30.4
2018-03-11T08:42:23.285Z,30.3
2018-03-11T08:43:13.399Z,29.9
2018-03-11T08:44:03.597Z,30.5
2018-03-11T08:44:54.672Z,31.3
2018-03-11T08:45:44.716Z,32
2018-03-11T08:46:34.782Z,32.8
2018-03-11T08:47:24.859Z,33.5
2018-03-11T08:48:14.683Z,34.3
2018-03-11T08:49:03.687Z,34.7
2018-03-11T08:49:54.476Z,34.2
2018-03-11T08:50:44.654Z,33.9
2018-03-11T08:51:34.915Z,33.6
2018-03-11T08:52:25.211Z,33.5
2018-03-11T08:53:15.531Z,33.3
2018-03-11T08:54:05.666Z,33.2
2018-03-11T08:54:55.356Z,33.1
2018-03-11T08:55:45.687Z,33
2018-03-11T08:56:34.254Z,32.9
2018-03-11T08:57:25.374Z,32.7
2018-03-11T08:58:15.102Z,32.6
2018-03-11T08:59:05.324Z,32.4
2018-03-11T08:59:55.265Z,32.3
2018-03-11T09:00:46.117Z,32.2
2018-03-11T09:01:34.319Z,32.1
2018-03-11T09:02:25.379Z,31.9
2018-03-11T09:03:16.313Z,31.8
2018-03-11T09:04:06.061Z,31.6
2018-03-11T09:04:56.418Z,31.5
2018-03-11T09:05:46.413Z,31.4
2018-03-11T09:06:36.736Z,31.3
2018-03-11T09:07:26.296Z,31.1
2018-03-11T09:08:16.615Z,30.9
2018-03-11T09:09:06.683Z,30.6
2018-03-11T09:09:56.533Z,31.2
2018-03-11T09:10:47.083Z,31.9
2018-03-11T09:11:37.106Z,32.6
2018-03-11T09:12:26.628Z,33.3
2018-03-11T09:13:16.957Z,34.1
2018-03-11T09:14:07.078Z,34.9
2018-03-11T09:14:57.050Z,34.8
2018-03-11T09:15:47.272Z,34.3
2018-03-11T09:16:37.484Z,34
2018-03-11T09:17:25.776Z,33.8
2018-03-11T09:18:15.474Z,33.7
2018-03-11T09:19:06.076Z,33.6
2018-03-11T09:19:55.593Z,33.4
2018-03-11T09:20:47.107Z,33.3
2018-03-11T09:21:36.559Z,33.1
2018-03-11T09:22:26.725Z,33
2018-03-11T09:23:16.377Z,32.9
2018-03-11T09:24:05.552Z,32.7
2018-03-11T09:24:56.130Z,32.6
2018-03-11T09:25:46.902Z,32.4
2018-03-11T09:26:36.232Z,32.3
2018-03-11T09:27:27.114Z,32.1
2018-03-11T09:28:16.191Z,32
2018-03-11T09:29:07.014Z,31.9
2018-03-11T09:29:56.694Z,31.8
2018-03-11T09:30:47.046Z,31.6
2018-03-11T09:31:37.382Z,31.4
2018-03-11T09:32:26.402Z,31.3
2018-03-11T09:33:17.347Z,31.2
2018-03-11T09:34:07.143Z,31
2018-03-11T09:34:57.279Z,30.7
2018-03-11T09:35:47.516Z,31.4
2018-03-11T09:36:37.318Z,32.2
2018-03-11T09:37:27.024Z,33
2018-03-11T09:38:16.197Z,33.8
2018-03-11T09:39:07.692Z,34.6
2018-03-11T09:39:58.079Z,35.3
2018-03-11T09:40:48.544Z,34.6
2018-03-11T09:41:39.382Z,34.3
2018-03-11T09:42:27.499Z,34.1
2018-03-11T09:43:18.921Z,33.9
2018-03-11T09:44:09.598Z,33.8
2018-03-11T09:44:59.261Z,33.6
2018-03-11T09:45:48.953Z,33.5
2018-03-11T09:46:39.414Z,33.4
2018-03-11T09:47:28.928Z,33.1
2018-03-11T09:48:19.498Z,33
2018-03-11T09:49:08.282Z,32.8
2018-03-11T09:49:58.013Z,32.6
2018-03-11T09:50:48.943Z,32.4
2018-03-11T09:51:37.893Z,32.3
2018-03-11T09:52:28.225Z,32.2
2018-03-11T09:53:18.658Z,32
2018-03-11T09:54:08.819Z,31.9
2018-03-11T09:54:59.462Z,31.8
2018-03-11T09:55:49.617Z,31.6
2018-03-11T09:56:39.305Z,31.4
2018-03-11T09:57:28.528Z,31.3
2018-03-11T09:58:18.925Z,31
2018-03-11T09:59:09.198Z,30.9
2018-03-11T09:59:59.518Z,30.7
2018-03-11T10:00:49.118Z,30.4
2018-03-11T10:01:39.772Z,31.1
2018-03-11T10:02:28.931Z,31.9
2018-03-11T10:03:20.115Z,32.8
2018-03-11T10:04:10.155Z,33.5
2018-03-11T10:05:00.474Z,34.4
2018-03-11T10:05:48.518Z,34.6
2018-03-11T10:06:39.853Z,34.1
2018-03-11T10:07:30.122Z,33.7
2018-03-11T10:08:19.672Z,33.4
2018-03-11T10:09:09.414Z,33.1
2018-03-11T10:09:59.292Z,32.9
2018-03-11T10:10:50.183Z,32.8
2018-03-11T10:11:40.144Z,32.6
2018-03-11T10:12:30.095Z,32.6
2018-03-11T10:13:20.429Z,32.4
2018-03-11T10:14:10.200Z,32.4
2018-03-11T10:14:59.932Z,32.3
2018-03-11T10:15:49.816Z,32.3
2018-03-11T10:16:39.959Z,32.2
2018-03-11T10:17:30.529Z,32.1
2018-03-11T10:18:20.564Z,31.9
2018-03-11T10:19:10.545Z,31.9
2018-03-11T10:20:00.571Z,31.8
2018-03-11T10:20:50.011Z,31.6
2018-03-11T10:21:40.139Z,31.5
2018-03-11T10:22:29.937Z,31.4
2018-03-11T10:23:20.739Z,31.3
2018-03-11T10:24:11.209Z,31.1
2018-03-11T10:25:01.623Z,31
2018-03-11T10:25:51.773Z,30.9
2018-03-11T10:26:41.278Z,30.8
2018-03-11T10:27:32.195Z,30.6
2018-03-11T10:28:20.388Z,30.5
2018-03-11T10:29:10.955Z,30.3
2018-03-11T10:30:00.850Z,30.2
2018-03-11T10:30:51.504Z,30.1
2018-03-11T10:31:41.931Z,29.9
2018-03-11T10:32:32.490Z,29.8
2018-03-11T10:33:21.653Z,29.7
2018-03-11T10:34:12.030Z,29.6
2018-03-11T10:35:01.198Z,29.4
2018-03-11T10:35:50.996Z,29.3
2018-03-11T10:36:41.935Z,29.2
2018-03-11T10:37:30.706Z,29.1
2018-03-11T10:38:21.350Z,29
2018-03-11T10:39:11.341Z,28.8
2018-03-11T10:40:01.485Z,28.8
2018-03-11T10:40:52.508Z,28.7
2018-03-11T10:41:41.903Z,28.9
2018-03-11T10:42:32.385Z,29.8
2018-03-11T10:43:22.940Z,30.7
2018-03-11T10:44:12.680Z,31.6
2018-03-11T10:45:02.841Z,32.4
2018-03-11T10:45:52.835Z,33.3
2018-03-11T10:46:43.032Z,34.3
2018-03-11T10:47:32.542Z,35.3
2018-03-11T10:48:22.388Z,35.1
2018-03-11T10:49:13.350Z,34.6
2018-03-11T10:50:02.879Z,34.3
2018-03-11T10:50:53.423Z,34.1
2018-03-11T10:51:43.650Z,34
2018-03-11T10:52:33.457Z,33.9
2018-03-11T10:53:22.684Z,33.7
2018-03-11T10:54:13.172Z,33.6
2018-03-11T10:55:02.477Z,33.4
2018-03-11T10:55:53.527Z,33.3
2018-03-11T10:56:43.711Z,33.1
2018-03-11T10:57:33.179Z,32.9
2018-03-11T10:58:22.905Z,32.8
2018-03-11T10:59:12.871Z,32.7
2018-03-11T11:00:02.737Z,32.5
2018-03-11T11:00:54.152Z,32.4
2018-03-11T11:01:42.955Z,32.2
2018-03-11T11:02:34.260Z,32.1
2018-03-11T11:03:24.334Z,31.9
2018-03-11T11:04:13.954Z,31.8
2018-03-11T11:05:03.582Z,31.6
2018-03-11T11:05:53.783Z,31.5
2018-03-11T11:06:43.799Z,31.3
2018-03-11T11:07:34.561Z,31.2
2018-03-11T11:08:23.931Z,31.1
2018-03-11T11:09:13.884Z,30.9
2018-03-11T11:10:03.459Z,30.8
2018-03-11T11:10:53.791Z,30.7
2018-03-11T11:11:44.166Z,30.5
2018-03-11T11:12:35.144Z,30.4
2018-03-11T11:13:24.851Z,30.3
2018-03-11T11:14:14.019Z,30.1
2018-03-11T11:15:03.960Z,30
2018-03-11T11:15:54.271Z,29.8
2018-03-11T11:16:44.437Z,29.7
2018-03-11T11:17:35.460Z,29.6
2018-03-11T11:18:23.365Z,29.5
2018-03-11T11:19:14.444Z,29.4
2018-03-11T11:20:05.411Z,29.3
2018-03-11T11:20:55.213Z,29.1
2018-03-11T11:21:44.905Z,29
2018-03-11T11:22:35.155Z,28.9
2018-03-11T11:23:24.319Z,28.8
2018-03-11T11:24:14.990Z,28.6
2018-03-11T11:25:06.830Z,29.3
2018-03-11T11:25:56.590Z,30.4
2018-03-11T11:26:46.745Z,31.4
2018-03-11T11:27:36.741Z,32.3
2018-03-11T11:28:27.052Z,33.4
2018-03-11T11:29:16.562Z,34.4
2018-03-11T11:30:07.185Z,35.4
2018-03-11T11:30:56.480Z,35.1
2018-03-11T11:31:46.755Z,34.6
2018-03-11T11:32:36.787Z,34.3
2018-03-11T11:33:25.755Z,34.1
2018-03-11T11:34:16.945Z,34
2018-03-11T11:35:07.376Z,33.9
2018-03-11T11:35:57.652Z,33.8
2018-03-11T11:36:47.665Z,33.6
2018-03-11T11:37:38.122Z,33.5
2018-03-11T11:38:27.325Z,33.3
2018-03-11T11:39:17.022Z,33.2
2018-03-11T11:40:07.709Z,33
2018-03-11T11:40:57.411Z,32.9
